LFQQLFBH

Guest
Details From LFQQ - Lille Lesquin
To LFBH - La Rochelle Laleu
Flight Number -
Tags Decoded
Created
Modified
Stats Distance 317 nm / 586 km
Max Altitude 0 ft / 0 m
Waypoints 3
Social Downloads 1
Likes 0
Share VATSIM

Download

Looking for another format? Having issues loading an existing format? Contact us
Advertisement - Login to hide

Notes

Decoded

Route

LFQQ TUPAR LFBH

ID Type Via Altitude Latitude Longitude Leg Dist Tot Dist Heading (true) Name
O LFQQ APT - 0 ft / 0 m 50.55997˚ 3.08777˚ - 0 nm - -
TUPAR FIX - 0 ft / 0 m 46.42917˚ -0.66278˚ 289 nm 289 nm 212° / 210° -
O LFBH APT - 0 ft / 0 m 46.17968˚ -1.21101˚ 27 nm 316 nm 237° / 236° -

Altitude Profile

Advertisement - Login to hide

Weather


0- 5 10 15 20 25 30 35+ Temperature / ° C

Clouds and Precipitation
Forecast for 2017-12-15 00:00 UTC. Updated 8 minutes ago

Ground ~20,000 ft ~40,000 ft Winds

LFQQ

Details ICAO LFQQ (LIL)
Name Lille Lesquin
Region France
Timezone Europe/Paris (UTC+1.0)
Stats Elevation 156 ft / 48 m (AMSL)
Location 50.566335° 3.095384°
Runways 2
Magnetic Variation 0.704° E

METAR

LFQQ 142300Z AUTO 19008KT CAVOK 01/00 Q0990 TEMPO 22020G30KT 3000 SHRAGS BKN007 BKN030CB

Decode

TAF

TAF LFQQ 141700Z 1418/1524 22010G20KT 9999 BKN030 TEMPO 1418/1512 22020G30KT 3000 SHRAGS BKN007 BKN030CB BECMG 1512/1515 31010KT TEMPO 1515/1524 31010G20KT 3000 SHRA BKN007 BKN030

Decode

Departure Runways

ID Width Length Bearing (true) Bearing (mag) Surface Threshold Offset Overrun Length
02 98 ft / 30 m 5,168 ft / 1,575 m 14.83° 14.13° Asphalt 0 ft / 0 m 0 ft / 0 m
08 146 ft / 45 m 9,250 ft / 2,819 m 77.36° 76.66° Asphalt 0 ft / 0 m 0 ft / 0 m
20 98 ft / 30 m 5,168 ft / 1,575 m 194.83° 194.13° Asphalt 0 ft / 0 m 0 ft / 0 m
26 146 ft / 45 m 9,250 ft / 2,819 m 257.39° 256.69° Asphalt 918 ft / 280 m 0 ft / 0 m

LFBH

Details ICAO LFBH (LRH)
Name La Rochelle Laleu
Region France
Timezone Europe/Paris (UTC+1.0)
Stats Elevation 74 ft / 23 m (AMSL)
Location 46.179245° -1.196410°
Runways 1
Magnetic Variation 0.302° W

METAR

LFBH 142300Z AUTO 28021KT 9999 FEW042 OVC150 09/04 Q1003 TEMPO 27025G45KT 4500 SHRA BKN014TCU

Decode

TAF

TAF LFBH 141700Z 1418/1518 30020G35KT 9999 BKN030 TEMPO 1418/1518 4500 SHRA BKN014TCU TEMPO 1418/1503 27025G45KT PROB30 TEMPO 1418/1421 27030G50KT 1500 TSRA BKN014CB TEMPO 1509/1518 30020G35KT

Decode

Destination Runways

ID Width Length Bearing (true) Bearing (mag) Surface Threshold Offset Overrun Length
10 148 ft / 45 m 7,383 ft / 2,250 m 92.43° 92.73° Asphalt 1,033 ft / 315 m 0 ft / 0 m
28 148 ft / 45 m 7,383 ft / 2,250 m 272.45° 272.75° Asphalt 1,532 ft / 467 m 0 ft / 0 m

Approach Navaids

Runway Type Ident Frequency Range Bearing (true) Bearing (mag) Slope Elevation
28 Localiser RL 109.55 MHz 18 nm / 33 km 272.43° 272.73° - 72 ft / 22 m (AMSL)
28 Glidescope RL 109.55 MHz 10 nm / 19 km 272.44° 272.74° 3.10° 108 ft / 33 m (AMSL)
28 DME RL 109.55 MHz 18 nm / 33 km - - - 66 ft / 20 m (AMSL)

Popular Alternatives